createdAt,value
2022-12-29T00:01:11.347Z,59.60
2022-12-29T00:03:39.705Z,60.20
2022-12-29T00:06:09.400Z,62.20
2022-12-29T00:08:46.144Z,59.60
2022-12-29T00:11:15.774Z,60.00
2022-12-29T00:14:02.013Z,59.70
2022-12-29T00:16:31.137Z,59.60
2022-12-29T00:18:59.688Z,58.50
2022-12-29T00:21:47.175Z,56.10
2022-12-29T00:24:36.083Z,56.80
2022-12-29T00:27:31.490Z,58.70
2022-12-29T00:30:18.035Z,59.20
2022-12-29T00:33:03.666Z,59.30
2022-12-29T00:35:34.434Z,59.40
2022-12-29T00:38:24.639Z,58.90
2022-12-29T00:41:15.341Z,59.30
2022-12-29T00:44:01.140Z,59.80
2022-12-29T00:46:29.395Z,59.70
2022-12-29T00:49:14.839Z,60.20
2022-12-29T00:51:43.101Z,59.90
2022-12-29T00:54:12.883Z,62.30
2022-12-29T00:56:42.367Z,62.30
2022-12-29T00:59:12.328Z,59.30
2022-12-29T01:01:41.275Z,60.00
2022-12-29T01:04:10.090Z,60.30
2022-12-29T01:06:39.192Z,64.50
2022-12-29T01:09:25.120Z,61.10
2022-12-29T01:11:54.770Z,58.30
2022-12-29T01:14:24.015Z,60.20
2022-12-29T01:16:52.672Z,56.40
2022-12-29T01:19:21.052Z,50.70
2022-12-29T01:21:49.937Z,44.80
2022-12-29T01:24:19.100Z,43.10
2022-12-29T01:26:47.934Z,39.30
2022-12-29T01:29:17.993Z,38.00
2022-12-29T01:31:46.468Z,36.70
2022-12-29T01:34:15.263Z,33.50
2022-12-29T01:36:44.298Z,33.70
2022-12-29T01:39:12.483Z,32.20
2022-12-29T01:41:40.758Z,31.50
2022-12-29T01:44:46.253Z,30.10
2022-12-29T01:47:18.406Z,29.60
2022-12-29T01:49:46.812Z,28.50
2022-12-29T01:52:15.288Z,29.30
2022-12-29T01:54:49.042Z,31.70
2022-12-29T01:57:22.651Z,27.70
2022-12-29T01:59:56.002Z,26.30
2022-12-29T02:02:26.439Z,26.80
2022-12-29T02:05:01.363Z,27.40
2022-12-29T02:07:33.391Z,26.40
2022-12-29T02:10:02.832Z,26.50
2022-12-29T02:12:31.097Z,26.60
2022-12-29T02:15:02.807Z,25.50
2022-12-29T02:17:49.052Z,26.00
2022-12-29T02:20:50.885Z,26.30
2022-12-29T02:23:42.583Z,24.60
2022-12-29T02:26:35.473Z,25.50
2022-12-29T02:29:45.493Z,25.30
2022-12-29T02:32:23.790Z,24.60
2022-12-29T02:35:00.165Z,25.50
2022-12-29T02:37:35.263Z,25.10
2022-12-29T02:40:09.549Z,24.90
2022-12-29T02:42:43.694Z,24.40
2022-12-29T02:45:20.423Z,24.70
2022-12-29T02:47:53.245Z,24.50
2022-12-29T02:50:25.528Z,24.30
2022-12-29T02:52:58.919Z,24.40
2022-12-29T02:55:26.173Z,24.00
2022-12-29T02:58:17.351Z,23.80
2022-12-29T03:00:56.284Z,23.80
2022-12-29T03:03:40.514Z,22.80
2022-12-29T03:06:23.767Z,23.70
2022-12-29T03:08:57.546Z,23.50
2022-12-29T03:11:52.369Z,24.20
2022-12-29T03:14:48.820Z,24.50
2022-12-29T03:17:26.670Z,24.90
2022-12-29T03:20:06.244Z,23.80
2022-12-29T03:22:38.626Z,23.70
2022-12-29T03:25:11.947Z,22.30
2022-12-29T03:27:44.057Z,22.10
2022-12-29T03:30:13.952Z,23.10
2022-12-29T03:32:46.662Z,23.40
2022-12-29T03:35:18.716Z,21.70
2022-12-29T03:37:53.444Z,22.80
2022-12-29T03:40:25.141Z,22.20
2022-12-29T03:42:55.152Z,22.50
2022-12-29T03:45:23.248Z,22.70
2022-12-29T03:47:51.645Z,23.30
2022-12-29T03:50:21.313Z,22.90
2022-12-29T03:52:49.601Z,21.90
2022-12-29T03:55:17.837Z,22.10
2022-12-29T03:57:46.783Z,22.30
2022-12-29T04:00:16.139Z,23.00
2022-12-29T04:02:46.725Z,22.50
2022-12-29T04:05:15.206Z,24.60
2022-12-29T04:07:44.735Z,22.60
2022-12-29T04:10:12.868Z,23.90
2022-12-29T04:12:42.665Z,23.90
2022-12-29T04:15:12.049Z,24.10
2022-12-29T04:17:40.272Z,23.90
2022-12-29T04:20:26.399Z,24.40
2022-12-29T04:23:02.075Z,23.40
2022-12-29T04:25:30.187Z,23.10
2022-12-29T04:27:58.331Z,23.60
2022-12-29T04:30:26.518Z,24.20
2022-12-29T04:32:54.664Z,25.20
2022-12-29T04:35:22.812Z,24.20
2022-12-29T04:37:50.973Z,24.20
2022-12-29T04:40:20.534Z,24.40
2022-12-29T04:42:48.691Z,23.80
2022-12-29T04:45:17.019Z,24.10
2022-12-29T04:47:45.666Z,23.70
2022-12-29T04:50:14.211Z,23.60
2022-12-29T04:52:42.436Z,23.10
2022-12-29T04:55:11.141Z,23.80
2022-12-29T04:57:40.763Z,23.60
2022-12-29T05:00:10.968Z,23.40
2022-12-29T05:02:39.298Z,24.60
2022-12-29T05:05:08.482Z,24.40
2022-12-29T05:07:36.780Z,23.10
2022-12-29T05:10:05.609Z,23.20
2022-12-29T05:12:34.264Z,22.50
2022-12-29T05:15:04.222Z,22.80
2022-12-29T05:17:32.501Z,22.90
2022-12-29T05:20:00.988Z,23.10
2022-12-29T05:22:29.123Z,23.10
2022-12-29T05:24:57.265Z,23.40
2022-12-29T05:27:25.413Z,24.00
2022-12-29T05:29:53.564Z,24.90
2022-12-29T05:32:23.095Z,24.10
2022-12-29T05:34:51.338Z,24.10
2022-12-29T05:37:19.527Z,24.60
2022-12-29T05:39:47.654Z,24.60
2022-12-29T05:42:15.769Z,24.70
2022-12-29T05:44:43.846Z,25.00
2022-12-29T05:47:11.951Z,25.60
2022-12-29T05:49:41.504Z,25.90
2022-12-29T05:52:09.619Z,25.40
2022-12-29T05:54:37.773Z,25.60
2022-12-29T05:57:05.895Z,25.60
2022-12-29T05:59:34.098Z,26.10
2022-12-29T06:02:02.463Z,26.70
2022-12-29T06:04:30.709Z,27.00
2022-12-29T06:07:00.218Z,26.80
2022-12-29T06:09:28.324Z,26.40
2022-12-29T06:11:56.744Z,26.40
2022-12-29T06:14:24.875Z,25.80
2022-12-29T06:16:53.060Z,25.90
2022-12-29T06:19:21.381Z,25.90
2022-12-29T06:21:49.476Z,25.70
2022-12-29T06:24:19.023Z,25.00
2022-12-29T06:26:47.142Z,25.00
2022-12-29T06:29:17.828Z,25.70
2022-12-29T06:31:47.247Z,25.90
2022-12-29T06:34:18.475Z,25.90
2022-12-29T06:36:46.582Z,26.00
2022-12-29T06:39:14.902Z,26.30
2022-12-29T06:41:44.511Z,26.60
2022-12-29T06:44:12.741Z,26.10
2022-12-29T06:46:40.952Z,26.00
2022-12-29T06:49:09.053Z,25.60
2022-12-29T06:51:37.108Z,25.10
2022-12-29T06:54:05.448Z,25.60
2022-12-29T06:56:33.651Z,26.20
2022-12-29T06:59:03.115Z,25.60
2022-12-29T07:01:31.392Z,25.70
2022-12-29T07:03:59.673Z,26.00
2022-12-29T07:06:27.867Z,25.60
2022-12-29T07:08:56.236Z,26.20
2022-12-29T07:11:24.423Z,27.00
2022-12-29T07:13:52.791Z,26.20
2022-12-29T07:16:22.443Z,26.00
2022-12-29T07:18:50.660Z,26.00
2022-12-29T07:21:19.437Z,26.10
2022-12-29T07:23:50.367Z,29.00
2022-12-29T07:26:19.312Z,33.20
2022-12-29T07:28:47.952Z,28.70
2022-12-29T07:31:18.156Z,29.50
2022-12-29T07:33:48.656Z,27.10
2022-12-29T07:36:18.224Z,27.00
2022-12-29T07:38:46.685Z,26.90
2022-12-29T07:41:14.958Z,27.40
2022-12-29T07:43:43.650Z,29.20
2022-12-29T07:46:54.040Z,26.60
2022-12-29T07:49:01.880Z,26.20
2022-12-29T07:51:29.943Z,26.40
2022-12-29T07:54:00.316Z,25.40
2022-12-29T07:56:28.459Z,25.10
2022-12-29T07:59:06.125Z,26.00
2022-12-29T08:01:34.447Z,25.30
2022-12-29T08:04:04.080Z,25.60
2022-12-29T08:06:32.245Z,24.50
2022-12-29T08:09:11.094Z,24.50
2022-12-29T08:11:41.749Z,24.50
2022-12-29T08:14:09.915Z,24.60
2022-12-29T08:16:38.102Z,24.80
2022-12-29T08:19:07.707Z,24.70
2022-12-29T08:21:36.144Z,24.20
2022-12-29T08:24:04.595Z,24.20
2022-12-29T08:26:32.711Z,24.40
2022-12-29T08:29:00.876Z,24.10
2022-12-29T08:31:29.213Z,23.50
2022-12-29T08:33:57.391Z,23.10
2022-12-29T08:36:26.976Z,23.40
2022-12-29T08:38:55.069Z,23.90
2022-12-29T08:41:23.201Z,23.90
2022-12-29T08:43:52.067Z,22.70
2022-12-29T08:46:20.497Z,22.50
2022-12-29T08:48:48.768Z,21.90
2022-12-29T08:51:22.764Z,21.20
2022-12-29T08:53:54.714Z,22.00
2022-12-29T08:56:24.738Z,22.40
2022-12-29T08:58:53.109Z,22.20
2022-12-29T09:01:21.632Z,22.00
2022-12-29T09:06:40.692Z,21.10
2022-12-29T09:09:10.479Z,20.60
2022-12-29T09:11:38.744Z,21.30
2022-12-29T09:14:06.880Z,21.40
2022-12-29T09:16:35.973Z,21.30
2022-12-29T09:19:04.542Z,21.80
2022-12-29T09:21:32.850Z,21.50
2022-12-29T09:24:00.965Z,20.70
2022-12-29T09:26:30.515Z,21.50
2022-12-29T09:28:58.965Z,21.50
2022-12-29T09:31:27.327Z,20.90
2022-12-29T09:33:55.438Z,20.90
2022-12-29T09:36:23.660Z,21.30
2022-12-29T09:38:52.264Z,21.10
2022-12-29T09:41:25.732Z,20.60
2022-12-29T09:44:08.054Z,20.10
2022-12-29T09:46:40.406Z,21.20
2022-12-29T09:49:24.736Z,21.30
2022-12-29T09:51:55.385Z,21.00
2022-12-29T09:54:45.586Z,20.10
2022-12-29T09:57:23.727Z,21.00
2022-12-29T09:59:57.826Z,21.60
2022-12-29T10:02:39.036Z,21.50
2022-12-29T10:05:20.320Z,21.40
2022-12-29T10:07:58.533Z,21.30
2022-12-29T10:10:36.104Z,21.30
2022-12-29T10:13:15.310Z,21.40
2022-12-29T10:15:57.915Z,21.50
2022-12-29T10:19:10.144Z,21.60
2022-12-29T10:21:53.962Z,22.20
2022-12-29T10:24:24.212Z,21.70
2022-12-29T10:26:54.163Z,22.20
2022-12-29T10:29:24.361Z,21.70
2022-12-29T10:32:00.949Z,22.30
2022-12-29T10:34:34.413Z,22.40
2022-12-29T10:37:07.488Z,22.30
2022-12-29T10:39:42.903Z,22.10
2022-12-29T10:42:17.605Z,22.00
2022-12-29T10:44:45.835Z,22.30
2022-12-29T10:47:21.106Z,22.00
2022-12-29T10:49:50.527Z,22.80
2022-12-29T10:52:22.139Z,23.00
2022-12-29T10:54:53.616Z,22.10
2022-12-29T10:57:29.423Z,22.10
2022-12-29T10:59:57.666Z,23.20
2022-12-29T11:02:54.413Z,21.80
2022-12-29T11:05:27.540Z,22.20
2022-12-29T11:08:00.215Z,21.90
2022-12-29T11:10:38.046Z,21.80
2022-12-29T11:13:14.028Z,21.90
2022-12-29T11:15:43.615Z,21.70
2022-12-29T11:18:25.269Z,22.40
2022-12-29T11:20:55.188Z,22.20
2022-12-29T11:23:27.410Z,23.20
2022-12-29T11:26:18.892Z,22.50
2022-12-29T11:28:49.310Z,23.00
2022-12-29T11:31:24.129Z,24.90
2022-12-29T11:33:53.689Z,23.50
2022-12-29T11:36:25.405Z,25.80
2022-12-29T11:38:55.703Z,25.40
2022-12-29T11:41:26.850Z,26.00
2022-12-29T11:43:57.681Z,26.30
2022-12-29T11:46:29.564Z,27.70
2022-12-29T11:49:01.552Z,28.20
2022-12-29T11:51:32.815Z,27.30
2022-12-29T11:54:03.795Z,27.50
2022-12-29T11:56:40.771Z,28.30
2022-12-29T11:59:52.277Z,27.70
2022-12-29T12:02:42.001Z,29.10
2022-12-29T12:05:27.989Z,29.40
2022-12-29T12:08:01.843Z,30.20
2022-12-29T12:10:34.973Z,30.70
2022-12-29T12:13:16.628Z,30.30
2022-12-29T12:15:54.503Z,30.40
2022-12-29T12:18:41.676Z,32.30
2022-12-29T12:21:18.754Z,31.70
2022-12-29T12:24:20.799Z,34.90
2022-12-29T12:26:59.943Z,33.20
2022-12-29T12:29:36.748Z,34.30
2022-12-29T12:32:13.749Z,33.90
2022-12-29T12:34:44.985Z,32.10
2022-12-29T12:37:54.962Z,31.00
2022-12-29T12:40:37.714Z,32.00
2022-12-29T12:43:27.570Z,32.50
2022-12-29T12:46:11.266Z,31.30
2022-12-29T12:48:55.319Z,33.00
2022-12-29T12:51:33.728Z,33.30
2022-12-29T12:54:14.171Z,33.20
2022-12-29T12:56:55.527Z,33.70
2022-12-29T12:59:37.988Z,33.70
2022-12-29T13:02:18.172Z,34.40
2022-12-29T13:05:08.915Z,33.40
2022-12-29T13:07:46.812Z,35.20
2022-12-29T13:10:39.116Z,31.40
2022-12-29T13:13:26.878Z,32.50
2022-12-29T13:16:02.785Z,32.80
2022-12-29T13:18:39.748Z,32.50
2022-12-29T13:21:30.777Z,32.50
2022-12-29T13:24:03.801Z,32.80
2022-12-29T13:26:37.662Z,32.40
2022-12-29T13:29:18.607Z,33.10
2022-12-29T13:31:53.587Z,32.90
2022-12-29T13:34:33.254Z,33.90
2022-12-29T13:37:05.125Z,33.20
2022-12-29T13:39:38.169Z,33.80
2022-12-29T13:42:07.093Z,33.80
2022-12-29T13:44:40.952Z,32.70
2022-12-29T13:47:21.970Z,33.10
2022-12-29T13:49:52.307Z,32.00
2022-12-29T13:52:27.010Z,32.00
2022-12-29T13:55:04.308Z,32.50
2022-12-29T13:57:42.173Z,32.20
2022-12-29T14:00:18.538Z,30.30
2022-12-29T14:03:03.920Z,31.70
2022-12-29T14:05:33.891Z,31.30
2022-12-29T14:08:04.147Z,31.80
2022-12-29T14:10:36.295Z,32.00
2022-12-29T14:13:08.691Z,31.20
2022-12-29T14:15:42.443Z,30.90
2022-12-29T14:18:18.987Z,30.10
2022-12-29T14:20:57.860Z,30.00
2022-12-29T14:23:38.863Z,30.00
2022-12-29T14:26:16.729Z,29.90
2022-12-29T14:28:46.223Z,30.70
2022-12-29T14:31:42.279Z,31.10
2022-12-29T14:34:39.328Z,31.50
2022-12-29T14:37:25.766Z,31.60
2022-12-29T14:40:06.472Z,31.90
2022-12-29T14:42:35.236Z,31.50
2022-12-29T14:45:07.975Z,31.70
2022-12-29T14:47:41.286Z,31.40
2022-12-29T14:50:15.779Z,31.10
2022-12-29T14:52:49.101Z,31.20
2022-12-29T14:55:40.624Z,31.90
2022-12-29T14:58:17.141Z,32.00
2022-12-29T15:00:46.467Z,30.80
2022-12-29T15:03:22.474Z,31.40
2022-12-29T15:05:53.960Z,30.50
2022-12-29T15:08:26.429Z,31.00
2022-12-29T15:10:59.109Z,30.30
2022-12-29T15:13:35.155Z,30.80
2022-12-29T15:16:03.307Z,29.70
2022-12-29T15:18:34.797Z,30.50
2022-12-29T15:21:08.871Z,29.10
2022-12-29T15:23:39.414Z,30.00
2022-12-29T15:26:09.135Z,29.80
2022-12-29T15:28:42.357Z,32.80
2022-12-29T15:31:15.159Z,28.40
2022-12-29T15:33:48.303Z,28.60
2022-12-29T15:36:21.597Z,27.60
2022-12-29T15:38:50.799Z,27.90
2022-12-29T15:41:31.757Z,27.50
2022-12-29T15:44:12.688Z,27.00
2022-12-29T15:46:41.646Z,26.90
2022-12-29T15:49:11.559Z,26.50
2022-12-29T15:51:41.746Z,26.00
2022-12-29T15:54:19.560Z,25.80
2022-12-29T15:56:48.169Z,25.60
2022-12-29T15:59:26.817Z,25.80
2022-12-29T16:01:56.344Z,26.30
2022-12-29T16:04:27.571Z,25.40
2022-12-29T16:07:00.741Z,25.50
2022-12-29T16:09:33.215Z,25.40
2022-12-29T16:12:05.127Z,25.40
2022-12-29T16:14:39.105Z,25.50
2022-12-29T16:17:07.426Z,25.60
2022-12-29T16:19:39.649Z,25.60
2022-12-29T16:22:14.149Z,25.40
2022-12-29T16:24:42.685Z,25.50
2022-12-29T16:27:16.909Z,25.50
2022-12-29T16:29:45.463Z,25.20
2022-12-29T16:32:27.642Z,25.70
2022-12-29T16:35:15.540Z,25.40
2022-12-29T16:37:43.731Z,25.40
2022-12-29T16:40:39.830Z,25.80
2022-12-29T16:43:22.942Z,27.00
2022-12-29T16:46:26.769Z,25.80
2022-12-29T16:48:57.085Z,25.60
2022-12-29T16:51:32.700Z,25.80
2022-12-29T16:54:01.816Z,26.20
2022-12-29T16:56:32.611Z,26.50
2022-12-29T16:59:05.183Z,26.60
2022-12-29T17:01:33.748Z,26.30
2022-12-29T17:04:07.369Z,26.00
2022-12-29T17:06:36.923Z,26.60
2022-12-29T17:09:17.783Z,26.80
2022-12-29T17:12:05.000Z,26.50
2022-12-29T17:14:43.606Z,26.40
2022-12-29T17:17:20.918Z,27.10
2022-12-29T17:19:52.855Z,27.30
2022-12-29T17:22:26.245Z,27.70
2022-12-29T17:24:55.012Z,27.90
2022-12-29T17:27:27.286Z,28.30
2022-12-29T17:29:58.311Z,27.80
2022-12-29T17:32:26.658Z,28.40
2022-12-29T17:34:54.833Z,28.10
2022-12-29T17:37:35.041Z,29.10
2022-12-29T17:40:03.593Z,29.30
2022-12-29T17:42:33.675Z,30.60
2022-12-29T17:45:03.068Z,32.00
2022-12-29T17:47:31.161Z,34.20
2022-12-29T17:49:59.266Z,34.40
2022-12-29T17:52:28.809Z,35.90
2022-12-29T17:54:57.105Z,35.50
2022-12-29T17:57:25.266Z,37.20
2022-12-29T17:59:53.443Z,36.20
2022-12-29T18:02:27.795Z,35.50
2022-12-29T18:04:56.788Z,35.40
2022-12-29T18:07:31.002Z,36.80
2022-12-29T18:10:03.849Z,35.80
2022-12-29T18:12:34.979Z,34.70
2022-12-29T18:15:03.179Z,36.10
2022-12-29T18:17:31.317Z,37.20
2022-12-29T18:19:59.362Z,37.80
2022-12-29T18:22:30.191Z,37.70
2022-12-29T18:24:58.338Z,37.50
2022-12-29T18:27:28.972Z,39.10
2022-12-29T18:29:57.059Z,38.80
2022-12-29T18:32:25.196Z,39.30
2022-12-29T18:34:53.396Z,40.10
2022-12-29T18:37:21.507Z,40.00
2022-12-29T18:39:49.580Z,39.40
2022-12-29T18:42:19.040Z,39.40
2022-12-29T18:44:48.579Z,40.70
2022-12-29T18:47:16.764Z,42.50
2022-12-29T18:49:45.076Z,46.60
2022-12-29T18:52:14.797Z,47.50
2022-12-29T18:54:42.945Z,49.10
2022-12-29T18:57:11.008Z,48.80
2022-12-29T18:59:39.191Z,48.40
2022-12-29T19:02:14.704Z,48.10
2022-12-29T19:04:42.816Z,46.50
2022-12-29T19:07:10.964Z,47.90
2022-12-29T19:09:39.142Z,48.30
2022-12-29T19:12:07.500Z,48.40
2022-12-29T19:14:35.601Z,48.80
2022-12-29T19:17:03.724Z,49.10
2022-12-29T19:19:33.249Z,49.70
2022-12-29T19:22:01.427Z,49.60
2022-12-29T19:24:30.319Z,48.50
2022-12-29T19:26:58.777Z,49.00
2022-12-29T19:29:28.039Z,49.10
2022-12-29T19:31:56.339Z,53.10
2022-12-29T19:34:24.441Z,49.00
2022-12-29T19:36:54.259Z,49.30
2022-12-29T19:39:22.447Z,49.80
2022-12-29T19:41:50.607Z,49.50
2022-12-29T19:44:19.514Z,49.30
2022-12-29T19:46:47.675Z,50.80
2022-12-29T19:49:15.807Z,52.20
2022-12-29T19:51:43.950Z,53.70
2022-12-29T19:54:13.560Z,54.60
2022-12-29T19:56:44.324Z,56.10
2022-12-29T19:59:12.813Z,54.60
2022-12-29T20:01:41.067Z,55.80
2022-12-29T20:04:09.329Z,57.20
2022-12-29T20:06:37.482Z,58.30
2022-12-29T20:09:05.678Z,58.70
2022-12-29T20:11:36.236Z,61.40
2022-12-29T20:14:04.650Z,59.50
2022-12-29T20:16:33.519Z,63.30
2022-12-29T20:19:02.071Z,62.60
2022-12-29T20:21:30.182Z,62.70
2022-12-29T20:23:58.314Z,62.20
2022-12-29T20:26:28.996Z,62.20
2022-12-29T20:29:00.047Z,62.20
2022-12-29T20:31:30.717Z,61.90
2022-12-29T20:33:59.200Z,62.40
2022-12-29T20:36:29.888Z,63.00
2022-12-29T20:39:00.170Z,64.50
2022-12-29T20:41:31.043Z,65.40
2022-12-29T20:44:01.173Z,63.20
2022-12-29T20:46:36.474Z,61.40
2022-12-29T20:49:09.426Z,62.80
2022-12-29T20:52:04.542Z,66.40
2022-12-29T20:54:26.014Z,64.80
2022-12-29T20:56:54.401Z,63.40
2022-12-29T20:59:28.498Z,70.70
2022-12-29T21:02:00.267Z,65.90
2022-12-29T21:04:43.805Z,69.60
2022-12-29T21:07:20.180Z,66.10
2022-12-29T21:09:51.839Z,67.40
2022-12-29T21:12:25.374Z,67.00
2022-12-29T21:14:55.086Z,70.50
2022-12-29T21:17:23.275Z,66.50
2022-12-29T21:19:51.525Z,66.10
2022-12-29T21:22:19.654Z,66.20
2022-12-29T21:24:47.870Z,65.50
2022-12-29T21:27:16.055Z,63.80
2022-12-29T21:29:44.062Z,65.50
2022-12-29T21:32:13.441Z,64.30
2022-12-29T21:34:41.467Z,64.30
2022-12-29T21:37:09.521Z,61.30
2022-12-29T21:39:37.524Z,64.10
2022-12-29T21:42:05.955Z,61.70
2022-12-29T21:44:51.636Z,58.40
2022-12-29T21:47:20.987Z,58.30
2022-12-29T21:49:48.987Z,57.80
2022-12-29T21:52:16.975Z,58.70
2022-12-29T21:55:04.815Z,60.40
2022-12-29T21:57:46.888Z,61.20
2022-12-29T22:00:33.357Z,64.30
2022-12-29T22:03:23.375Z,66.50
2022-12-29T22:06:10.684Z,66.50
2022-12-29T22:08:56.931Z,65.40
2022-12-29T22:11:42.166Z,61.20
2022-12-29T22:14:10.354Z,63.20
2022-12-29T22:16:38.315Z,64.60
2022-12-29T22:19:08.838Z,63.40
2022-12-29T22:21:36.938Z,62.80
2022-12-29T22:24:05.253Z,63.70
2022-12-29T22:26:33.271Z,63.10
2022-12-29T22:29:01.341Z,63.70
2022-12-29T22:31:32.664Z,64.00
2022-12-29T22:34:03.578Z,64.40
2022-12-29T22:36:33.640Z,64.30
2022-12-29T22:39:01.630Z,64.50
2022-12-29T22:41:29.625Z,62.70
2022-12-29T22:43:57.613Z,62.70
2022-12-29T22:46:25.735Z,61.80
2022-12-29T22:48:53.863Z,63.60
2022-12-29T22:51:21.817Z,64.50
2022-12-29T22:53:51.742Z,63.80
2022-12-29T22:56:20.204Z,61.90
2022-12-29T22:58:49.483Z,60.20
2022-12-29T23:01:21.973Z,61.50
2022-12-29T23:03:50.719Z,61.50
2022-12-29T23:06:19.001Z,62.30
2022-12-29T23:08:47.967Z,64.00
2022-12-29T23:11:17.484Z,63.50
2022-12-29T23:13:46.105Z,64.30
2022-12-29T23:16:14.995Z,62.50
2022-12-29T23:18:43.459Z,64.20
2022-12-29T23:21:12.157Z,64.00
2022-12-29T23:23:56.110Z,65.30
2022-12-29T23:26:32.408Z,65.40
2022-12-29T23:29:01.456Z,65.80
2022-12-29T23:31:30.725Z,65.50
2022-12-29T23:33:58.997Z,66.40
2022-12-29T23:36:27.417Z,66.60
2022-12-29T23:38:55.708Z,66.10
2022-12-29T23:41:23.837Z,66.30
2022-12-29T23:43:53.278Z,62.50
2022-12-29T23:46:23.692Z,63.40
2022-12-29T23:48:52.205Z,65.00
2022-12-29T23:51:20.314Z,65.50
2022-12-29T23:53:48.939Z,65.40
2022-12-29T23:56:18.783Z,65.50
2022-12-29T23:58:46.898Z,65.60
